sensor_id;sensor_type;location;lat;lon;timestamp;temperature;humidity
30250;DHT22;17064;47.974;13.826;2022-12-07T04:03:22;2.60;99.90
30250;DHT22;17064;47.974;13.826;2022-12-07T04:08:23;2.60;99.90
30250;DHT22;17064;47.974;13.826;2022-12-07T04:13:23;2.50;99.90
30250;DHT22;17064;47.974;13.826;2022-12-07T04:18:24;2.50;99.90
30250;DHT22;17064;47.974;13.826;2022-12-07T04:23:25;2.50;99.90
30250;DHT22;17064;47.974;13.826;2022-12-07T04:28:25;2.40;99.90
30250;DHT22;17064;47.974;13.826;2022-12-07T04:33:26;2.40;99.90
30250;DHT22;17064;47.974;13.826;2022-12-07T04:38:27;2.50;99.90
30250;DHT22;17064;47.974;13.826;2022-12-07T04:43:28;2.40;99.90
30250;DHT22;17064;47.974;13.826;2022-12-07T04:48:28;2.40;99.90
30250;DHT22;17064;47.974;13.826;2022-12-07T04:53:29;2.40;99.90
30250;DHT22;17064;47.974;13.826;2022-12-07T04:58:30;2.30;99.90
30250;DHT22;17064;47.974;13.826;2022-12-07T05:03:30;2.40;99.90
30250;DHT22;17064;47.974;13.826;2022-12-07T05:08:32;2.40;99.90
30250;DHT22;17064;47.974;13.826;2022-12-07T05:13:34;2.40;99.90
30250;DHT22;17064;47.974;13.826;2022-12-07T05:18:35;2.40;99.90
30250;DHT22;17064;47.974;13.826;2022-12-07T05:23:36;2.40;99.90
30250;DHT22;17064;47.974;13.826;2022-12-07T05:28:36;2.30;99.90
30250;DHT22;17064;47.974;13.826;2022-12-07T05:33:37;2.40;99.90
30250;DHT22;17064;47.974;13.826;2022-12-07T05:38:38;2.30;99.90
30250;DHT22;17064;47.974;13.826;2022-12-07T05:43:39;2.40;99.90
30250;DHT22;17064;47.974;13.826;2022-12-07T05:48:39;2.30;99.90
30250;DHT22;17064;47.974;13.826;2022-12-07T05:53:40;2.30;99.90
30250;DHT22;17064;47.974;13.826;2022-12-07T05:58:41;2.30;99.90
30250;DHT22;17064;47.974;13.826;2022-12-07T06:04:00;2.30;99.90
30250;DHT22;17064;47.974;13.826;2022-12-07T06:09:01;2.30;99.90
30250;DHT22;17064;47.974;13.826;2022-12-07T06:14:01;2.30;99.90
30250;DHT22;17064;47.974;13.826;2022-12-07T06:19:02;2.30;99.90
30250;DHT22;17064;47.974;13.826;2022-12-07T06:24:03;2.30;99.90
30250;DHT22;17064;47.974;13.826;2022-12-07T06:29:04;2.20;99.90
30250;DHT22;17064;47.974;13.826;2022-12-07T06:34:09;2.20;99.90
30250;DHT22;17064;47.974;13.826;2022-12-07T06:39:10;2.30;99.90
30250;DHT22;17064;47.974;13.826;2022-12-07T06:44:11;2.20;99.90
30250;DHT22;17064;47.974;13.826;2022-12-07T06:49:12;2.20;99.90
30250;DHT22;17064;47.974;13.826;2022-12-07T06:54:13;2.20;99.90
30250;DHT22;17064;47.974;13.826;2022-12-07T06:59:14;2.20;99.90
30250;DHT22;17064;47.974;13.826;2022-12-07T07:04:15;2.20;99.90
30250;DHT22;17064;47.974;13.826;2022-12-07T07:09:16;2.20;99.90
30250;DHT22;17064;47.974;13.826;2022-12-07T07:14:16;2.20;99.90
30250;DHT22;17064;47.974;13.826;2022-12-07T07:19:19;2.20;99.90
30250;DHT22;17064;47.974;13.826;2022-12-07T07:24:20;2.20;99.90
30250;DHT22;17064;47.974;13.826;2022-12-07T07:29:20;2.20;99.90
30250;DHT22;17064;47.974;13.826;2022-12-07T07:34:21;2.20;99.90
30250;DHT22;17064;47.974;13.826;2022-12-07T07:39:22;2.30;99.90
30250;DHT22;17064;47.974;13.826;2022-12-07T07:44:23;2.30;99.90
30250;DHT22;17064;47.974;13.826;2022-12-07T07:49:23;2.30;99.90
30250;DHT22;17064;47.974;13.826;2022-12-07T07:54:24;2.30;99.90
30250;DHT22;17064;47.974;13.826;2022-12-07T07:59:25;2.30;99.90
30250;DHT22;17064;47.974;13.826;2022-12-07T08:04:25;2.30;99.90
30250;DHT22;17064;47.974;13.826;2022-12-07T08:09:26;2.30;99.90
30250;DHT22;17064;47.974;13.826;2022-12-07T08:14:27;2.30;99.90
30250;DHT22;17064;47.974;13.826;2022-12-07T08:19:29;2.30;99.90
30250;DHT22;17064;47.974;13.826;2022-12-07T08:24:29;2.40;99.90
30250;DHT22;17064;47.974;13.826;2022-12-07T08:29:30;2.40;99.90
30250;DHT22;17064;47.974;13.826;2022-12-07T08:34:31;2.50;99.90
30250;DHT22;17064;47.974;13.826;2022-12-07T08:39:32;2.50;99.90
30250;DHT22;17064;47.974;13.826;2022-12-07T08:44:32;2.60;99.90
30250;DHT22;17064;47.974;13.826;2022-12-07T08:49:37;2.60;99.90
30250;DHT22;17064;47.974;13.826;2022-12-07T08:54:40;2.70;99.90
30250;DHT22;17064;47.974;13.826;2022-12-07T08:59:41;2.70;99.90
30250;DHT22;17064;47.974;13.826;2022-12-07T09:04:42;2.70;99.90
30250;DHT22;17064;47.974;13.826;2022-12-07T09:09:42;2.70;99.90
30250;DHT22;17064;47.974;13.826;2022-12-07T09:14:43;2.80;99.90
30250;DHT22;17064;47.974;13.826;2022-12-07T09:19:44;2.80;99.90
30250;DHT22;17064;47.974;13.826;2022-12-07T09:24:45;2.90;99.90
30250;DHT22;17064;47.974;13.826;2022-12-07T09:29:46;2.90;99.90
30250;DHT22;17064;47.974;13.826;2022-12-07T09:34:46;3.00;99.90
30250;DHT22;17064;47.974;13.826;2022-12-07T09:39:47;3.00;99.90
30250;DHT22;17064;47.974;13.826;2022-12-07T09:44:48;3.00;99.90
30250;DHT22;17064;47.974;13.826;2022-12-07T09:49:49;3.00;99.90
30250;DHT22;17064;47.974;13.826;2022-12-07T09:54:50;3.00;99.90
30250;DHT22;17064;47.974;13.826;2022-12-07T09:59:51;3.00;99.90
30250;DHT22;17064;47.974;13.826;2022-12-07T10:04:51;3.10;99.90
30250;DHT22;17064;47.974;13.826;2022-12-07T10:09:52;3.20;99.90
30250;DHT22;17064;47.974;13.826;2022-12-07T10:15:01;3.30;99.90
30250;DHT22;17064;47.974;13.826;2022-12-07T10:25:20;3.40;99.90
30250;DHT22;17064;47.974;13.826;2022-12-07T10:30:21;3.40;99.90
30250;DHT22;17064;47.974;13.826;2022-12-07T10:35:28;3.50;99.90
30250;DHT22;17064;47.974;13.826;2022-12-07T10:40:35;3.50;99.90
30250;DHT22;17064;47.974;13.826;2022-12-07T10:51:15;3.60;99.90
30250;DHT22;17064;47.974;13.826;2022-12-07T11:07:29;3.70;99.90
30250;DHT22;17064;47.974;13.826;2022-12-07T11:18:11;3.80;99.90
30250;DHT22;17064;47.974;13.826;2022-12-07T11:38:53;3.90;99.90
30250;DHT22;17064;47.974;13.826;2022-12-07T11:44:33;3.80;99.90
30250;DHT22;17064;47.974;13.826;2022-12-07T11:49:47;3.90;99.90
30250;DHT22;17064;47.974;13.826;2022-12-07T11:54:53;3.90;99.90
30250;DHT22;17064;47.974;13.826;2022-12-07T12:00:03;4.00;99.90
30250;DHT22;17064;47.974;13.826;2022-12-07T12:10:27;4.00;99.90
30250;DHT22;17064;47.974;13.826;2022-12-07T12:21:08;3.90;99.90
30250;DHT22;17064;47.974;13.826;2022-12-07T12:26:20;3.90;99.90
30250;DHT22;17064;47.974;13.826;2022-12-07T12:36:28;4.00;99.90
30250;DHT22;17064;47.974;13.826;2022-12-07T12:51:52;4.00;99.90
30250;DHT22;17064;47.974;13.826;2022-12-07T12:57:26;4.00;99.90
30250;DHT22;17064;47.974;13.826;2022-12-07T13:02:38;3.90;99.90
30250;DHT22;17064;47.974;13.826;2022-12-07T13:18:45;3.80;99.90
30250;DHT22;17064;47.974;13.826;2022-12-07T13:39:35;3.70;99.90
30250;DHT22;17064;47.974;13.826;2022-12-07T13:44:44;3.60;99.90
30250;DHT22;17064;47.974;13.826;2022-12-07T13:49:50;3.60;99.90
30250;DHT22;17064;47.974;13.826;2022-12-07T14:00:05;3.60;99.90
30250;DHT22;17064;47.974;13.826;2022-12-07T14:05:33;3.50;99.90
30250;DHT22;17064;47.974;13.826;2022-12-07T14:10:53;3.50;99.90
30250;DHT22;17064;47.974;13.826;2022-12-07T14:15:55;3.40;99.90
30250;DHT22;17064;47.974;13.826;2022-12-07T14:21:18;3.40;99.90
30250;DHT22;17064;47.974;13.826;2022-12-07T14:26:20;3.30;99.90
30250;DHT22;17064;47.974;13.826;2022-12-07T14:31:24;3.30;99.90
30250;DHT22;17064;47.974;13.826;2022-12-07T14:36:25;3.10;99.90
30250;DHT22;17064;47.974;13.826;2022-12-07T14:41:26;3.10;99.90
30250;DHT22;17064;47.974;13.826;2022-12-07T14:46:45;3.10;99.90
30250;DHT22;17064;47.974;13.826;2022-12-07T14:51:47;3.00;99.90
30250;DHT22;17064;47.974;13.826;2022-12-07T14:56:48;2.90;99.90
30250;DHT22;17064;47.974;13.826;2022-12-07T15:01:50;2.90;99.90
30250;DHT22;17064;47.974;13.826;2022-12-07T15:06:58;2.80;99.90
30250;DHT22;17064;47.974;13.826;2022-12-07T15:11:59;2.80;99.90
30250;DHT22;17064;47.974;13.826;2022-12-07T15:17:00;2.70;99.90
30250;DHT22;17064;47.974;13.826;2022-12-07T15:22:01;2.60;99.90
30250;DHT22;17064;47.974;13.826;2022-12-07T15:27:02;2.60;99.90
30250;DHT22;17064;47.974;13.826;2022-12-07T15:32:02;2.50;99.90
30250;DHT22;17064;47.974;13.826;2022-12-07T15:37:03;2.40;99.90
30250;DHT22;17064;47.974;13.826;2022-12-07T15:42:04;2.40;99.90
30250;DHT22;17064;47.974;13.826;2022-12-07T15:47:05;2.30;99.90
30250;DHT22;17064;47.974;13.826;2022-12-07T15:52:06;2.30;99.90
30250;DHT22;17064;47.974;13.826;2022-12-07T15:57:07;2.30;99.90
30250;DHT22;17064;47.974;13.826;2022-12-07T16:02:09;2.20;99.90
30250;DHT22;17064;47.974;13.826;2022-12-07T16:07:10;2.20;99.90
30250;DHT22;17064;47.974;13.826;2022-12-07T16:12:13;2.10;99.90
30250;DHT22;17064;47.974;13.826;2022-12-07T16:17:14;2.10;99.90
30250;DHT22;17064;47.974;13.826;2022-12-07T16:22:15;2.10;99.90
30250;DHT22;17064;47.974;13.826;2022-12-07T16:27:15;2.10;99.90
30250;DHT22;17064;47.974;13.826;2022-12-07T16:32:16;2.10;99.90
30250;DHT22;17064;47.974;13.826;2022-12-07T16:37:17;2.10;99.90
30250;DHT22;17064;47.974;13.826;2022-12-07T16:42:18;2.10;99.90
30250;DHT22;17064;47.974;13.826;2022-12-07T16:47:18;2.10;99.90
30250;DHT22;17064;47.974;13.826;2022-12-07T16:52:21;2.10;99.90
30250;DHT22;17064;47.974;13.826;2022-12-07T16:57:22;2.00;99.90
30250;DHT22;17064;47.974;13.826;2022-12-07T17:02:22;2.00;99.90
30250;DHT22;17064;47.974;13.826;2022-12-07T17:07:23;1.90;99.90
30250;DHT22;17064;47.974;13.826;2022-12-07T17:12:24;1.90;99.90
30250;DHT22;17064;47.974;13.826;2022-12-07T17:17:26;1.90;99.90
30250;DHT22;17064;47.974;13.826;2022-12-07T17:22:27;1.90;99.90
30250;DHT22;17064;47.974;13.826;2022-12-07T17:27:28;1.90;99.90
30250;DHT22;17064;47.974;13.826;2022-12-07T17:32:28;1.90;99.90
30250;DHT22;17064;47.974;13.826;2022-12-07T17:37:30;1.90;99.90
30250;DHT22;17064;47.974;13.826;2022-12-07T17:42:31;1.90;99.90
30250;DHT22;17064;47.974;13.826;2022-12-07T17:47:39;1.90;99.90
30250;DHT22;17064;47.974;13.826;2022-12-07T17:52:40;1.90;99.90
30250;DHT22;17064;47.974;13.826;2022-12-07T17:58:00;2.00;99.90
30250;DHT22;17064;47.974;13.826;2022-12-07T18:03:00;2.00;99.90
30250;DHT22;17064;47.974;13.826;2022-12-07T18:08:01;2.00;99.90
30250;DHT22;17064;47.974;13.826;2022-12-07T18:13:02;2.00;99.90
30250;DHT22;17064;47.974;13.826;2022-12-07T18:18:21;2.00;99.90
30250;DHT22;17064;47.974;13.826;2022-12-07T18:23:22;1.90;99.90
30250;DHT22;17064;47.974;13.826;2022-12-07T18:28:23;1.90;99.90
30250;DHT22;17064;47.974;13.826;2022-12-07T18:33:24;1.90;99.90
30250;DHT22;17064;47.974;13.826;2022-12-07T18:38:26;1.90;99.90
30250;DHT22;17064;47.974;13.826;2022-12-07T18:43:28;1.80;99.90
30250;DHT22;17064;47.974;13.826;2022-12-07T18:48:30;1.80;99.90
30250;DHT22;17064;47.974;13.826;2022-12-07T18:53:32;1.90;99.90
30250;DHT22;17064;47.974;13.826;2022-12-07T18:58:34;1.80;99.90
30250;DHT22;17064;47.974;13.826;2022-12-07T19:03:35;1.80;99.90
30250;DHT22;17064;47.974;13.826;2022-12-07T19:08:36;1.80;99.90
30250;DHT22;17064;47.974;13.826;2022-12-07T19:13:37;1.80;99.90
30250;DHT22;17064;47.974;13.826;2022-12-07T19:18:38;1.80;99.90
30250;DHT22;17064;47.974;13.826;2022-12-07T19:23:39;1.80;99.90
30250;DHT22;17064;47.974;13.826;2022-12-07T19:28:41;1.80;99.90
30250;DHT22;17064;47.974;13.826;2022-12-07T19:33:42;1.80;99.90
30250;DHT22;17064;47.974;13.826;2022-12-07T19:38:43;1.80;99.90
30250;DHT22;17064;47.974;13.826;2022-12-07T19:43:46;1.80;99.90
30250;DHT22;17064;47.974;13.826;2022-12-07T19:48:47;1.80;99.90
30250;DHT22;17064;47.974;13.826;2022-12-07T19:53:49;1.80;99.90
30250;DHT22;17064;47.974;13.826;2022-12-07T19:58:50;1.80;99.90
30250;DHT22;17064;47.974;13.826;2022-12-07T20:03:52;1.80;99.90
30250;DHT22;17064;47.974;13.826;2022-12-07T20:08:53;1.80;99.90
30250;DHT22;17064;47.974;13.826;2022-12-07T20:13:54;1.80;99.90
30250;DHT22;17064;47.974;13.826;2022-12-07T20:18:56;1.80;99.90
30250;DHT22;17064;47.974;13.826;2022-12-07T20:24:00;1.80;99.90
30250;DHT22;17064;47.974;13.826;2022-12-07T20:29:09;1.80;99.90
30250;DHT22;17064;47.974;13.826;2022-12-07T20:34:11;1.80;99.90
30250;DHT22;17064;47.974;13.826;2022-12-07T20:39:13;1.80;99.90
30250;DHT22;17064;47.974;13.826;2022-12-07T20:44:15;1.80;99.90
30250;DHT22;17064;47.974;13.826;2022-12-07T20:49:17;1.80;99.90
30250;DHT22;17064;47.974;13.826;2022-12-07T20:54:18;1.90;99.90
30250;DHT22;17064;47.974;13.826;2022-12-07T20:59:19;1.90;99.90
30250;DHT22;17064;47.974;13.826;2022-12-07T21:04:20;1.90;99.90
30250;DHT22;17064;47.974;13.826;2022-12-07T21:09:20;2.00;99.90
30250;DHT22;17064;47.974;13.826;2022-12-07T21:14:26;2.00;99.90
30250;DHT22;17064;47.974;13.826;2022-12-07T21:19:26;2.00;99.90
30250;DHT22;17064;47.974;13.826;2022-12-07T21:24:27;2.00;99.90
30250;DHT22;17064;47.974;13.826;2022-12-07T21:29:28;2.00;99.90
30250;DHT22;17064;47.974;13.826;2022-12-07T21:34:29;2.00;99.90
30250;DHT22;17064;47.974;13.826;2022-12-07T21:39:29;2.00;99.90
30250;DHT22;17064;47.974;13.826;2022-12-07T21:44:30;2.00;99.90
30250;DHT22;17064;47.974;13.826;2022-12-07T21:49:31;2.00;99.90
30250;DHT22;17064;47.974;13.826;2022-12-07T21:54:35;2.00;99.90
30250;DHT22;17064;47.974;13.826;2022-12-07T21:59:35;1.90;99.90
30250;DHT22;17064;47.974;13.826;2022-12-07T22:04:37;1.90;99.90
30250;DHT22;17064;47.974;13.826;2022-12-07T22:09:37;1.80;99.90
30250;DHT22;17064;47.974;13.826;2022-12-07T22:14:38;1.90;99.90
30250;DHT22;17064;47.974;13.826;2022-12-07T22:19:58;1.90;99.90
30250;DHT22;17064;47.974;13.826;2022-12-07T22:24:58;1.90;99.90
30250;DHT22;17064;47.974;13.826;2022-12-07T22:29:59;1.90;99.90
30250;DHT22;17064;47.974;13.826;2022-12-07T22:35:00;1.90;99.90
30250;DHT22;17064;47.974;13.826;2022-12-07T22:40:01;1.90;99.90
30250;DHT22;17064;47.974;13.826;2022-12-07T22:45:01;1.90;99.90
30250;DHT22;17064;47.974;13.826;2022-12-07T22:50:09;1.90;99.90
30250;DHT22;17064;47.974;13.826;2022-12-07T22:55:10;1.90;99.90
30250;DHT22;17064;47.974;13.826;2022-12-07T23:00:11;1.90;99.90
30250;DHT22;17064;47.974;13.826;2022-12-07T23:05:13;1.90;99.90
30250;DHT22;17064;47.974;13.826;2022-12-07T23:10:14;1.80;99.90
30250;DHT22;17064;47.974;13.826;2022-12-07T23:15:14;1.80;99.90
30250;DHT22;17064;47.974;13.826;2022-12-07T23:20:16;1.80;99.90
30250;DHT22;17064;47.974;13.826;2022-12-07T23:25:17;1.80;99.90
30250;DHT22;17064;47.974;13.826;2022-12-07T23:30:18;1.80;99.90
30250;DHT22;17064;47.974;13.826;2022-12-07T23:35:19;1.70;99.90
30250;DHT22;17064;47.974;13.826;2022-12-07T23:40:20;1.70;99.90
30250;DHT22;17064;47.974;13.826;2022-12-07T23:45:21;1.60;99.90
30250;DHT22;17064;47.974;13.826;2022-12-07T23:50:21;1.40;99.90
30250;DHT22;17064;47.974;13.826;2022-12-07T23:55:22;1.40;99.90
